sensor_id;sensor_type;location;lat;lon;timestamp;pressure;altitude;pressure_sealevel;temperature;humidity
52693;BME280;68218;51.012;-1.648;2023-03-09T00:02:22;98110.84;;;1.43;100.00
52693;BME280;68218;51.012;-1.648;2023-03-09T00:04:47;98116.94;;;1.43;100.00
52693;BME280;68218;51.012;-1.648;2023-03-09T00:07:12;98112.97;;;1.41;100.00
52693;BME280;68218;51.012;-1.648;2023-03-09T00:09:38;98121.97;;;1.40;100.00
52693;BME280;68218;51.012;-1.648;2023-03-09T00:12:03;98121.47;;;1.43;100.00
52693;BME280;68218;51.012;-1.648;2023-03-09T00:14:29;98133.38;;;1.40;100.00
52693;BME280;68218;51.012;-1.648;2023-03-09T00:16:54;98136.81;;;1.36;100.00
52693;BME280;68218;51.012;-1.648;2023-03-09T00:19:20;98147.69;;;1.34;100.00
52693;BME280;68218;51.012;-1.648;2023-03-09T00:21:53;98142.84;;;1.26;100.00
52693;BME280;68218;51.012;-1.648;2023-03-09T00:24:25;98148.66;;;1.23;100.00
52693;BME280;68218;51.012;-1.648;2023-03-09T00:26:59;98155.03;;;1.22;100.00
52693;BME280;68218;51.012;-1.648;2023-03-09T00:29:27;98158.72;;;1.21;100.00
52693;BME280;68218;51.012;-1.648;2023-03-09T00:31:53;98153.97;;;1.23;100.00
52693;BME280;68218;51.012;-1.648;2023-03-09T00:34:18;98161.63;;;1.19;100.00
52693;BME280;68218;51.012;-1.648;2023-03-09T00:36:44;98170.41;;;1.20;100.00
52693;BME280;68218;51.012;-1.648;2023-03-09T00:39:12;98178.88;;;1.17;100.00
52693;BME280;68218;51.012;-1.648;2023-03-09T00:41:38;98182.84;;;1.14;100.00
52693;BME280;68218;51.012;-1.648;2023-03-09T00:44:03;98188.38;;;1.12;100.00
52693;BME280;68218;51.012;-1.648;2023-03-09T00:46:29;98195.81;;;1.10;100.00
52693;BME280;68218;51.012;-1.648;2023-03-09T00:48:56;98197.16;;;1.13;100.00
52693;BME280;68218;51.012;-1.648;2023-03-09T00:51:21;98209.13;;;1.16;100.00
52693;BME280;68218;51.012;-1.648;2023-03-09T00:53:47;98208.34;;;1.15;100.00
52693;BME280;68218;51.012;-1.648;2023-03-09T00:56:15;98213.06;;;1.13;100.00
52693;BME280;68218;51.012;-1.648;2023-03-09T00:58:41;98211.50;;;1.12;100.00
52693;BME280;68218;51.012;-1.648;2023-03-09T01:01:08;98222.59;;;1.09;100.00
52693;BME280;68218;51.012;-1.648;2023-03-09T01:03:34;98231.09;;;1.11;100.00
52693;BME280;68218;51.012;-1.648;2023-03-09T01:06:00;98240.13;;;1.10;100.00
52693;BME280;68218;51.012;-1.648;2023-03-09T01:08:25;98241.72;;;1.11;100.00
52693;BME280;68218;51.012;-1.648;2023-03-09T01:10:51;98256.66;;;1.17;100.00
52693;BME280;68218;51.012;-1.648;2023-03-09T01:13:16;98257.16;;;1.14;100.00
52693;BME280;68218;51.012;-1.648;2023-03-09T01:15:42;98261.19;;;1.17;100.00
52693;BME280;68218;51.012;-1.648;2023-03-09T01:18:07;98266.16;;;1.13;100.00
52693;BME280;68218;51.012;-1.648;2023-03-09T01:20:33;98267.84;;;1.19;100.00
52693;BME280;68218;51.012;-1.648;2023-03-09T01:22:58;98267.28;;;1.17;100.00
52693;BME280;68218;51.012;-1.648;2023-03-09T01:25:24;98265.66;;;1.16;100.00
52693;BME280;68218;51.012;-1.648;2023-03-09T01:27:50;98278.94;;;1.16;100.00
52693;BME280;68218;51.012;-1.648;2023-03-09T01:30:16;98271.75;;;1.11;100.00
52693;BME280;68218;51.012;-1.648;2023-03-09T01:32:41;98281.53;;;1.11;100.00
52693;BME280;68218;51.012;-1.648;2023-03-09T01:35:07;98286.56;;;1.07;100.00
52693;BME280;68218;51.012;-1.648;2023-03-09T01:37:33;98303.84;;;1.10;100.00
52693;BME280;68218;51.012;-1.648;2023-03-09T01:39:58;98297.81;;;1.20;100.00
52693;BME280;68218;51.012;-1.648;2023-03-09T01:42:24;98296.00;;;1.20;100.00
52693;BME280;68218;51.012;-1.648;2023-03-09T01:47:37;98302.69;;;1.28;100.00
52693;BME280;68218;51.012;-1.648;2023-03-09T01:50:03;98319.41;;;1.28;100.00
52693;BME280;68218;51.012;-1.648;2023-03-09T01:52:32;98328.69;;;1.26;100.00
52693;BME280;68218;51.012;-1.648;2023-03-09T01:55:09;98334.81;;;1.26;100.00
52693;BME280;68218;51.012;-1.648;2023-03-09T01:57:46;98335.16;;;1.35;100.00
52693;BME280;68218;51.012;-1.648;2023-03-09T02:00:16;98351.22;;;1.45;100.00
52693;BME280;68218;51.012;-1.648;2023-03-09T02:02:47;98360.50;;;1.43;100.00
52693;BME280;68218;51.012;-1.648;2023-03-09T02:05:17;98357.28;;;1.41;100.00
52693;BME280;68218;51.012;-1.648;2023-03-09T02:07:46;98358.31;;;1.40;100.00
52693;BME280;68218;51.012;-1.648;2023-03-09T02:10:35;98369.19;;;1.38;100.00
52693;BME280;68218;51.012;-1.648;2023-03-09T02:13:07;98374.75;;;1.37;100.00
52693;BME280;68218;51.012;-1.648;2023-03-09T02:15:33;98380.88;;;1.37;100.00
52693;BME280;68218;51.012;-1.648;2023-03-09T02:17:59;98388.59;;;1.39;100.00
52693;BME280;68218;51.012;-1.648;2023-03-09T02:23:16;98378.19;;;1.32;100.00
52693;BME280;68218;51.012;-1.648;2023-03-09T02:25:52;98381.03;;;1.25;100.00
52693;BME280;68218;51.012;-1.648;2023-03-09T02:28:21;98386.13;;;1.32;100.00
52693;BME280;68218;51.012;-1.648;2023-03-09T02:30:47;98388.03;;;1.37;100.00
52693;BME280;68218;51.012;-1.648;2023-03-09T02:33:27;98390.13;;;1.35;100.00
52693;BME280;68218;51.012;-1.648;2023-03-09T02:35:56;98389.09;;;1.36;100.00
52693;BME280;68218;51.012;-1.648;2023-03-09T02:38:23;98389.34;;;1.34;100.00
52693;BME280;68218;51.012;-1.648;2023-03-09T02:40:49;98378.91;;;1.27;100.00
52693;BME280;68218;51.012;-1.648;2023-03-09T02:43:21;98369.25;;;1.21;100.00
52693;BME280;68218;51.012;-1.648;2023-03-09T02:45:50;98358.53;;;1.11;100.00
52693;BME280;68218;51.012;-1.648;2023-03-09T02:48:16;98357.13;;;1.03;100.00
52693;BME280;68218;51.012;-1.648;2023-03-09T02:50:41;98360.03;;;1.02;100.00
52693;BME280;68218;51.012;-1.648;2023-03-09T02:53:08;98355.50;;;1.02;100.00
52693;BME280;68218;51.012;-1.648;2023-03-09T02:55:33;98360.03;;;1.02;100.00
52693;BME280;68218;51.012;-1.648;2023-03-09T02:57:59;98366.91;;;1.03;100.00
52693;BME280;68218;51.012;-1.648;2023-03-09T03:00:24;98372.28;;;1.08;100.00
52693;BME280;68218;51.012;-1.648;2023-03-09T03:02:51;98388.56;;;1.11;100.00
52693;BME280;68218;51.012;-1.648;2023-03-09T03:05:16;98381.00;;;1.03;100.00
52693;BME280;68218;51.012;-1.648;2023-03-09T03:07:41;98384.16;;;1.00;100.00
52693;BME280;68218;51.012;-1.648;2023-03-09T03:10:08;98387.03;;;0.99;100.00
52693;BME280;68218;51.012;-1.648;2023-03-09T03:12:34;98387.59;;;1.01;100.00
52693;BME280;68218;51.012;-1.648;2023-03-09T03:14:59;98388.09;;;0.98;100.00
52693;BME280;68218;51.012;-1.648;2023-03-09T03:17:25;98391.31;;;1.00;100.00
52693;BME280;68218;51.012;-1.648;2023-03-09T03:19:50;98392.34;;;0.99;100.00
52693;BME280;68218;51.012;-1.648;2023-03-09T03:22:17;98379.31;;;0.97;100.00
52693;BME280;68218;51.012;-1.648;2023-03-09T03:24:43;98396.69;;;1.05;100.00
52693;BME280;68218;51.012;-1.648;2023-03-09T03:27:08;98386.63;;;1.07;100.00
52693;BME280;68218;51.012;-1.648;2023-03-09T03:29:34;98383.41;;;1.05;100.00
52693;BME280;68218;51.012;-1.648;2023-03-09T03:31:59;98388.72;;;1.05;100.00
52693;BME280;68218;51.012;-1.648;2023-03-09T03:34:25;98384.22;;;1.05;100.00
52693;BME280;68218;51.012;-1.648;2023-03-09T03:36:50;98375.94;;;1.02;100.00
52693;BME280;68218;51.012;-1.648;2023-03-09T03:39:16;98384.16;;;1.00;100.00
52693;BME280;68218;51.012;-1.648;2023-03-09T03:41:42;98386.31;;;1.03;100.00
52693;BME280;68218;51.012;-1.648;2023-03-09T03:44:07;98391.06;;;1.01;100.00
52693;BME280;68218;51.012;-1.648;2023-03-09T03:46:33;98384.47;;;1.04;100.00
52693;BME280;68218;51.012;-1.648;2023-03-09T03:48:59;98388.16;;;1.03;100.00
52693;BME280;68218;51.012;-1.648;2023-03-09T03:51:24;98403.28;;;1.02;100.00
52693;BME280;68218;51.012;-1.648;2023-03-09T03:53:50;98408.91;;;1.06;100.00
52693;BME280;68218;51.012;-1.648;2023-03-09T03:56:15;98418.41;;;1.02;100.00
52693;BME280;68218;51.012;-1.648;2023-03-09T03:58:41;98416.97;;;0.94;100.00
52693;BME280;68218;51.012;-1.648;2023-03-09T04:01:06;98422.28;;;0.94;100.00
52693;BME280;68218;51.012;-1.648;2023-03-09T04:03:32;98420.69;;;0.93;100.00
52693;BME280;68218;51.012;-1.648;2023-03-09T04:05:58;98407.66;;;0.91;100.00
52693;BME280;68218;51.012;-1.648;2023-03-09T04:08:24;98404.75;;;0.93;100.00
52693;BME280;68218;51.012;-1.648;2023-03-09T04:10:49;98410.38;;;0.97;100.00
52693;BME280;68218;51.012;-1.648;2023-03-09T04:13:15;98420.28;;;1.01;100.00
52693;BME280;68218;51.012;-1.648;2023-03-09T04:15:40;98420.81;;;1.03;100.00
52693;BME280;68218;51.012;-1.648;2023-03-09T04:18:07;98418.41;;;1.02;100.00
52693;BME280;68218;51.012;-1.648;2023-03-09T04:20:33;98429.34;;;1.05;100.00
52693;BME280;68218;51.012;-1.648;2023-03-09T04:22:58;98437.53;;;1.04;100.00
52693;BME280;68218;51.012;-1.648;2023-03-09T04:25:24;98434.16;;;1.08;100.00
52693;BME280;68218;51.012;-1.648;2023-03-09T04:27:49;98429.16;;;1.12;100.00
52693;BME280;68218;51.012;-1.648;2023-03-09T04:30:16;98432.84;;;1.11;100.00
52693;BME280;68218;51.012;-1.648;2023-03-09T04:32:46;98423.78;;;1.07;100.00
52693;BME280;68218;51.012;-1.648;2023-03-09T04:35:14;98430.63;;;1.03;100.00
52693;BME280;68218;51.012;-1.648;2023-03-09T04:37:40;98430.13;;;1.06;100.00
52693;BME280;68218;51.012;-1.648;2023-03-09T04:40:05;98422.72;;;1.08;100.00
52693;BME280;68218;51.012;-1.648;2023-03-09T04:42:31;98428.53;;;1.05;100.00
52693;BME280;68218;51.012;-1.648;2023-03-09T04:44:57;98426.13;;;1.03;100.00
52693;BME280;68218;51.012;-1.648;2023-03-09T04:47:23;98425.31;;;1.03;100.00
52693;BME280;68218;51.012;-1.648;2023-03-09T04:49:48;98430.69;;;1.08;100.00
52693;BME280;68218;51.012;-1.648;2023-03-09T04:52:14;98432.38;;;1.14;100.00
52693;BME280;68218;51.012;-1.648;2023-03-09T04:54:40;98437.13;;;1.12;100.00
52693;BME280;68218;51.012;-1.648;2023-03-09T04:57:06;98433.41;;;1.13;100.00
52693;BME280;68218;51.012;-1.648;2023-03-09T04:59:31;98433.75;;;1.17;100.00
52693;BME280;68218;51.012;-1.648;2023-03-09T05:01:57;98430.19;;;1.11;100.00
52693;BME280;68218;51.012;-1.648;2023-03-09T05:04:22;98416.94;;;1.11;100.00
52693;BME280;68218;51.012;-1.648;2023-03-09T05:06:48;98424.34;;;1.09;100.00
52693;BME280;68218;51.012;-1.648;2023-03-09T05:09:13;98423.78;;;1.07;100.00
52693;BME280;68218;51.012;-1.648;2023-03-09T05:11:39;98421.25;;;1.17;100.00
52693;BME280;68218;51.012;-1.648;2023-03-09T05:14:05;98422.53;;;1.15;100.00
52693;BME280;68218;51.012;-1.648;2023-03-09T05:16:30;98421.69;;;1.09;100.00
52693;BME280;68218;51.012;-1.648;2023-03-09T05:18:55;98432.31;;;1.09;100.00
52693;BME280;68218;51.012;-1.648;2023-03-09T05:21:21;98432.31;;;1.09;100.00
52693;BME280;68218;51.012;-1.648;2023-03-09T05:23:47;98426.44;;;1.07;100.00
52693;BME280;68218;51.012;-1.648;2023-03-09T05:26:12;98416.84;;;1.06;100.00
52693;BME280;68218;51.012;-1.648;2023-03-09T05:28:38;98419.28;;;1.07;100.00
52693;BME280;68218;51.012;-1.648;2023-03-09T05:31:12;98420.66;;;1.10;100.00
52693;BME280;68218;51.012;-1.648;2023-03-09T05:33:38;98410.50;;;1.07;100.00
52693;BME280;68218;51.012;-1.648;2023-03-09T05:36:17;98413.72;;;1.09;100.00
52693;BME280;68218;51.012;-1.648;2023-03-09T05:38:42;98410.50;;;1.07;100.00
52693;BME280;68218;51.012;-1.648;2023-03-09T05:41:08;98411.56;;;1.06;100.00
52693;BME280;68218;51.012;-1.648;2023-03-09T05:43:33;98412.38;;;1.06;100.00
52693;BME280;68218;51.012;-1.648;2023-03-09T05:46:02;98404.41;;;1.06;100.00
52693;BME280;68218;51.012;-1.648;2023-03-09T05:48:28;98407.31;;;1.05;100.00
52693;BME280;68218;51.012;-1.648;2023-03-09T05:50:53;98405.22;;;1.07;100.00
52693;BME280;68218;51.012;-1.648;2023-03-09T05:53:19;98395.63;;;1.06;100.00
52693;BME280;68218;51.012;-1.648;2023-03-09T05:55:44;98388.22;;;1.08;100.00
52693;BME280;68218;51.012;-1.648;2023-03-09T05:58:14;98385.63;;;1.13;100.00
52693;BME280;68218;51.012;-1.648;2023-03-09T06:00:40;98381.06;;;1.08;100.00
52693;BME280;68218;51.012;-1.648;2023-03-09T06:03:05;98392.25;;;1.10;100.00
52693;BME280;68218;51.012;-1.648;2023-03-09T06:05:31;98394.16;;;1.15;100.00
52693;BME280;68218;51.012;-1.648;2023-03-09T06:07:56;98400.28;;;1.16;100.00
52693;BME280;68218;51.012;-1.648;2023-03-09T06:10:22;98397.38;;;1.17;100.00
52693;BME280;68218;51.012;-1.648;2023-03-09T06:12:47;98384.66;;;1.19;100.00
52693;BME280;68218;51.012;-1.648;2023-03-09T06:15:12;98379.88;;;1.21;100.00
52693;BME280;68218;51.012;-1.648;2023-03-09T06:17:38;98387.59;;;1.23;100.00
52693;BME280;68218;51.012;-1.648;2023-03-09T06:20:04;98393.72;;;1.23;100.00
52693;BME280;68218;51.012;-1.648;2023-03-09T06:22:29;98403.22;;;1.19;100.00
52693;BME280;68218;51.012;-1.648;2023-03-09T06:24:54;98406.19;;;1.23;100.00
52693;BME280;68218;51.012;-1.648;2023-03-09T06:27:20;98408.38;;;1.26;100.00
52693;BME280;68218;51.012;-1.648;2023-03-09T06:29:45;98413.91;;;1.24;100.00
52693;BME280;68218;51.012;-1.648;2023-03-09T06:32:11;98408.59;;;1.24;100.00
52693;BME280;68218;51.012;-1.648;2023-03-09T06:34:36;98404.91;;;1.25;100.00
52693;BME280;68218;51.012;-1.648;2023-03-09T06:37:02;98394.34;;;1.30;100.00
52693;BME280;68218;51.012;-1.648;2023-03-09T06:39:28;98407.06;;;1.28;100.00
52693;BME280;68218;51.012;-1.648;2023-03-09T06:41:53;98402.56;;;1.29;100.00
52693;BME280;68218;51.012;-1.648;2023-03-09T06:44:19;98411.00;;;1.26;100.00
52693;BME280;68218;51.012;-1.648;2023-03-09T06:46:44;98402.56;;;1.29;100.00
52693;BME280;68218;51.012;-1.648;2023-03-09T06:49:09;98406.00;;;1.29;100.00
52693;BME280;68218;51.012;-1.648;2023-03-09T06:51:35;98402.63;;;1.34;100.00
52693;BME280;68218;51.012;-1.648;2023-03-09T06:54:00;98408.19;;;1.33;100.00
52693;BME280;68218;51.012;-1.648;2023-03-09T06:56:26;98396.00;;;1.37;100.00
52693;BME280;68218;51.012;-1.648;2023-03-09T06:58:54;98398.66;;;1.37;100.00
52693;BME280;68218;51.012;-1.648;2023-03-09T07:01:19;98401.38;;;1.42;100.00
52693;BME280;68218;51.012;-1.648;2023-03-09T07:03:45;98398.97;;;1.40;100.00
52693;BME280;68218;51.012;-1.648;2023-03-09T07:06:11;98397.19;;;1.46;100.00
52693;BME280;68218;51.012;-1.648;2023-03-09T07:08:37;98396.38;;;1.45;100.00
52693;BME280;68218;51.012;-1.648;2023-03-09T07:11:03;98393.53;;;1.52;100.00
52693;BME280;68218;51.012;-1.648;2023-03-09T07:13:29;98401.78;;;1.56;100.00
52693;BME280;68218;51.012;-1.648;2023-03-09T07:15:55;98410.59;;;1.56;100.00
52693;BME280;68218;51.012;-1.648;2023-03-09T07:18:20;98396.78;;;1.59;100.00
52693;BME280;68218;51.012;-1.648;2023-03-09T07:20:46;98387.22;;;1.58;100.00
52693;BME280;68218;51.012;-1.648;2023-03-09T07:23:13;98396.53;;;1.61;100.00
52693;BME280;68218;51.012;-1.648;2023-03-09T07:25:39;98401.06;;;1.60;100.00
52693;BME280;68218;51.012;-1.648;2023-03-09T07:28:06;98405.13;;;1.68;100.00
52693;BME280;68218;51.012;-1.648;2023-03-09T07:30:32;98395.59;;;1.72;100.00
52693;BME280;68218;51.012;-1.648;2023-03-09T07:32:59;98391.66;;;1.80;100.00
52693;BME280;68218;51.012;-1.648;2023-03-09T07:35:25;98391.72;;;1.85;100.00
52693;BME280;68218;51.012;-1.648;2023-03-09T07:37:50;98394.09;;;1.81;100.00
52693;BME280;68218;51.012;-1.648;2023-03-09T07:40:16;98392.25;;;1.82;100.00
52693;BME280;68218;51.012;-1.648;2023-03-09T07:42:42;98405.63;;;1.92;100.00
52693;BME280;68218;51.012;-1.648;2023-03-09T07:45:08;98403.47;;;1.89;100.00
52693;BME280;68218;51.012;-1.648;2023-03-09T07:47:33;98388.56;;;1.88;100.00
52693;BME280;68218;51.012;-1.648;2023-03-09T07:49:59;98389.69;;;1.92;100.00
52693;BME280;68218;51.012;-1.648;2023-03-09T07:52:25;98408.34;;;1.97;100.00
52693;BME280;68218;51.012;-1.648;2023-03-09T07:54:59;98379.09;;;1.97;100.00
52693;BME280;68218;51.012;-1.648;2023-03-09T07:57:30;98382.31;;;1.99;100.00
52693;BME280;68218;51.012;-1.648;2023-03-09T07:59:55;98385.88;;;2.15;100.00
52693;BME280;68218;51.012;-1.648;2023-03-09T08:02:21;98382.97;;;2.17;100.00
52693;BME280;68218;51.012;-1.648;2023-03-09T08:04:46;98370.72;;;2.16;100.00
52693;BME280;68218;51.012;-1.648;2023-03-09T08:07:12;98368.69;;;2.23;100.00
52693;BME280;68218;51.012;-1.648;2023-03-09T08:09:38;98372.13;;;2.23;100.00
52693;BME280;68218;51.012;-1.648;2023-03-09T08:12:04;98384.97;;;2.32;100.00
52693;BME280;68218;51.012;-1.648;2023-03-09T08:14:30;98377.78;;;2.32;100.00
52693;BME280;68218;51.012;-1.648;2023-03-09T08:16:55;98380.47;;;2.37;100.00
52693;BME280;68218;51.012;-1.648;2023-03-09T08:19:20;98377.88;;;2.42;100.00
52693;BME280;68218;51.012;-1.648;2023-03-09T08:21:47;98374.94;;;2.44;100.00
52693;BME280;68218;51.012;-1.648;2023-03-09T08:24:13;98389.03;;;2.44;100.00
52693;BME280;68218;51.012;-1.648;2023-03-09T08:26:39;98382.19;;;2.49;100.00
52693;BME280;68218;51.012;-1.648;2023-03-09T08:29:04;98386.97;;;2.52;100.00
52693;BME280;68218;51.012;-1.648;2023-03-09T08:31:30;98380.34;;;2.54;100.00
52693;BME280;68218;51.012;-1.648;2023-03-09T08:33:55;98378.50;;;2.60;100.00
52693;BME280;68218;51.012;-1.648;2023-03-09T08:36:21;98373.47;;;2.63;100.00
52693;BME280;68218;51.012;-1.648;2023-03-09T08:38:47;98367.38;;;2.68;100.00
52693;BME280;68218;51.012;-1.648;2023-03-09T08:41:13;98364.75;;;2.73;100.00
52693;BME280;68218;51.012;-1.648;2023-03-09T08:43:39;98361.03;;;2.74;100.00
52693;BME280;68218;51.012;-1.648;2023-03-09T08:46:05;98365.06;;;2.82;100.00
52693;BME280;68218;51.012;-1.648;2023-03-09T08:48:30;98361.06;;;2.79;100.00
52693;BME280;68218;51.012;-1.648;2023-03-09T08:50:59;98354.44;;;2.87;100.00
52693;BME280;68218;51.012;-1.648;2023-03-09T08:53:25;98351.78;;;2.87;100.00
52693;BME280;68218;51.012;-1.648;2023-03-09T08:55:51;98354.19;;;2.89;100.00
52693;BME280;68218;51.012;-1.648;2023-03-09T08:58:16;98353.69;;;2.97;100.00
52693;BME280;68218;51.012;-1.648;2023-03-09T09:00:42;98342.25;;;3.02;100.00
52693;BME280;68218;51.012;-1.648;2023-03-09T09:03:08;98341.75;;;3.10;100.00
52693;BME280;68218;51.012;-1.648;2023-03-09T09:05:34;98346.84;;;3.16;100.00
52693;BME280;68218;51.012;-1.648;2023-03-09T09:08:00;98339.13;;;3.15;100.00
52693;BME280;68218;51.012;-1.648;2023-03-09T09:10:25;98341.56;;;3.27;100.00
52693;BME280;68218;51.012;-1.648;2023-03-09T09:12:51;98343.47;;;3.36;100.00
52693;BME280;68218;51.012;-1.648;2023-03-09T09:15:16;98346.66;;;3.38;100.00
52693;BME280;68218;51.012;-1.648;2023-03-09T09:17:42;98344.00;;;3.44;100.00
52693;BME280;68218;51.012;-1.648;2023-03-09T09:20:08;98343.53;;;3.62;100.00
52693;BME280;68218;51.012;-1.648;2023-03-09T09:22:34;98328.31;;;3.58;100.00
52693;BME280;68218;51.012;-1.648;2023-03-09T09:25:00;98337.44;;;3.77;100.00
52693;BME280;68218;51.012;-1.648;2023-03-09T09:27:26;98325.16;;;3.86;100.00
52693;BME280;68218;51.012;-1.648;2023-03-09T09:29:51;98333.69;;;3.78;100.00
52693;BME280;68218;51.012;-1.648;2023-03-09T09:32:21;98331.53;;;3.90;100.00
52693;BME280;68218;51.012;-1.648;2023-03-09T09:34:46;98332.38;;;4.22;100.00
52693;BME280;68218;51.012;-1.648;2023-03-09T09:37:12;98319.00;;;4.37;100.00
52693;BME280;68218;51.012;-1.648;2023-03-09T09:39:38;98314.44;;;4.48;100.00
52693;BME280;68218;51.012;-1.648;2023-03-09T09:42:37;98318.72;;;4.54;100.00
52693;BME280;68218;51.012;-1.648;2023-03-09T09:45:23;98319.78;;;4.48;100.00
52693;BME280;68218;51.012;-1.648;2023-03-09T09:47:50;98315.19;;;4.69;100.00
52693;BME280;68218;51.012;-1.648;2023-03-09T09:50:16;98316.75;;;4.85;100.00
52693;BME280;68218;51.012;-1.648;2023-03-09T09:55:26;98315.94;;;4.90;100.00
52693;BME280;68218;51.012;-1.648;2023-03-09T09:58:03;98306.03;;;4.96;100.00
52693;BME280;68218;51.012;-1.648;2023-03-09T10:00:45;98296.38;;;5.05;100.00
52693;BME280;68218;51.012;-1.648;2023-03-09T10:03:32;98302.47;;;5.16;100.00
52693;BME280;68218;51.012;-1.648;2023-03-09T10:13:55;98295.13;;;5.42;100.00
52693;BME280;68218;51.012;-1.648;2023-03-09T10:16:26;98289.94;;;5.56;100.00
52693;BME280;68218;51.012;-1.648;2023-03-09T10:18:56;98291.50;;;5.62;100.00
52693;BME280;68218;51.012;-1.648;2023-03-09T10:23:57;98284.06;;;5.93;100.00
52693;BME280;68218;51.012;-1.648;2023-03-09T10:26:42;98279.84;;;6.16;100.00
52693;BME280;68218;51.012;-1.648;2023-03-09T10:29:20;98267.94;;;6.57;100.00
52693;BME280;68218;51.012;-1.648;2023-03-09T10:31:57;98263.72;;;6.99;100.00
52693;BME280;68218;51.012;-1.648;2023-03-09T10:34:29;98264.75;;;7.22;100.00
52693;BME280;68218;51.012;-1.648;2023-03-09T10:37:01;98273.00;;;7.45;100.00
52693;BME280;68218;51.012;-1.648;2023-03-09T10:39:32;98270.31;;;7.64;100.00
52693;BME280;68218;51.012;-1.648;2023-03-09T10:42:11;98265.69;;;8.02;100.00
52693;BME280;68218;51.012;-1.648;2023-03-09T10:44:43;98266.28;;;8.46;100.00
52693;BME280;68218;51.012;-1.648;2023-03-09T10:47:11;98260.50;;;8.67;100.00
52693;BME280;68218;51.012;-1.648;2023-03-09T10:49:36;98262.50;;;8.89;100.00
52693;BME280;68218;51.012;-1.648;2023-03-09T10:52:03;98250.25;;;8.96;100.00
52693;BME280;68218;51.012;-1.648;2023-03-09T10:56:57;98263.06;;;8.99;100.00
52693;BME280;68218;51.012;-1.648;2023-03-09T10:59:24;98259.50;;;9.04;100.00
52693;BME280;68218;51.012;-1.648;2023-03-09T11:01:52;98258.97;;;9.16;100.00
52693;BME280;68218;51.012;-1.648;2023-03-09T11:17:29;98255.56;;;9.61;100.00
52693;BME280;68218;51.012;-1.648;2023-03-09T11:22:39;98249.88;;;9.62;100.00
52693;BME280;68218;51.012;-1.648;2023-03-09T11:25:42;98254.94;;;9.64;100.00
52693;BME280;68218;51.012;-1.648;2023-03-09T11:31:01;98246.63;;;9.74;100.00
52693;BME280;68218;51.012;-1.648;2023-03-09T11:33:26;98252.91;;;9.92;100.00
52693;BME280;68218;51.012;-1.648;2023-03-09T11:35:54;98252.91;;;9.92;100.00
52693;BME280;68218;51.012;-1.648;2023-03-09T11:38:21;98246.81;;;9.78;100.00
52693;BME280;68218;51.012;-1.648;2023-03-09T11:40:50;98251.59;;;9.58;100.00
52693;BME280;68218;51.012;-1.648;2023-03-09T11:43:29;98244.50;;;9.62;100.00
52693;BME280;68218;51.012;-1.648;2023-03-09T11:46:01;98250.81;;;9.80;100.00
52693;BME280;68218;51.012;-1.648;2023-03-09T11:48:41;98249.38;;;9.60;100.00
52693;BME280;68218;51.012;-1.648;2023-03-09T11:51:23;98241.00;;;9.62;100.00
52693;BME280;68218;51.012;-1.648;2023-03-09T11:56:47;98244.13;;;9.55;100.00
52693;BME280;68218;51.012;-1.648;2023-03-09T11:59:34;98247.41;;;9.52;100.00
52693;BME280;68218;51.012;-1.648;2023-03-09T12:02:18;98244.13;;;9.55;100.00
52693;BME280;68218;51.012;-1.648;2023-03-09T12:04:47;98228.09;;;9.50;100.00
52693;BME280;68218;51.012;-1.648;2023-03-09T12:07:20;98236.34;;;9.53;100.00
52693;BME280;68218;51.012;-1.648;2023-03-09T12:18:16;98234.06;;;9.24;100.00
52693;BME280;68218;51.012;-1.648;2023-03-09T12:20:49;98235.22;;;9.32;100.00
52693;BME280;68218;51.012;-1.648;2023-03-09T12:23:51;98234.63;;;9.35;100.00
52693;BME280;68218;51.012;-1.648;2023-03-09T12:28:57;98234.88;;;9.47;100.00
52693;BME280;68218;51.012;-1.648;2023-03-09T12:31:33;98231.69;;;9.45;100.00
52693;BME280;68218;51.012;-1.648;2023-03-09T12:36:42;98225.41;;;9.50;100.00
52693;BME280;68218;51.012;-1.648;2023-03-09T12:49:57;98204.66;;;9.96;100.00
52693;BME280;68218;51.012;-1.648;2023-03-09T12:52:34;98206.84;;;9.93;99.50
52693;BME280;68218;51.012;-1.648;2023-03-09T12:57:39;98194.03;;;10.30;100.00
52693;BME280;68218;51.012;-1.648;2023-03-09T13:02:59;98179.72;;;9.90;97.65
52693;BME280;68218;51.012;-1.648;2023-03-09T13:05:39;98180.34;;;9.87;98.27
52693;BME280;68218;51.012;-1.648;2023-03-09T13:08:35;98166.59;;;9.88;98.56
52693;BME280;68218;51.012;-1.648;2023-03-09T13:14:01;98167.75;;;9.96;98.03
52693;BME280;68218;51.012;-1.648;2023-03-09T13:21:44;98157.47;;;10.07;97.39
52693;BME280;68218;51.012;-1.648;2023-03-09T13:24:22;98151.94;;;10.03;97.95
52693;BME280;68218;51.012;-1.648;2023-03-09T13:26:51;98158.75;;;10.01;97.41
52693;BME280;68218;51.012;-1.648;2023-03-09T13:29:21;98148.75;;;10.01;98.19
52693;BME280;68218;51.012;-1.648;2023-03-09T13:31:49;98141.59;;;9.97;98.09
52693;BME280;68218;51.012;-1.648;2023-03-09T13:34:18;98140.16;;;9.90;97.60
52693;BME280;68218;51.012;-1.648;2023-03-09T13:36:46;98128.63;;;9.99;97.90
52693;BME280;68218;51.012;-1.648;2023-03-09T13:39:21;98126.44;;;10.01;97.64
52693;BME280;68218;51.012;-1.648;2023-03-09T13:41:47;98118.16;;;9.97;97.30
52693;BME280;68218;51.012;-1.648;2023-03-09T13:44:24;98117.94;;;9.85;98.36
52693;BME280;68218;51.012;-1.648;2023-03-09T13:46:52;98116.38;;;9.84;98.43
52693;BME280;68218;51.012;-1.648;2023-03-09T13:49:21;98105.34;;;9.94;98.61
52693;BME280;68218;51.012;-1.648;2023-03-09T13:57:04;98104.19;;;9.86;98.28
52693;BME280;68218;51.012;-1.648;2023-03-09T13:59:45;98098.91;;;9.72;97.58
52693;BME280;68218;51.012;-1.648;2023-03-09T14:02:12;98087.69;;;9.79;98.27
52693;BME280;68218;51.012;-1.648;2023-03-09T14:04:44;98087.69;;;9.79;98.23
52693;BME280;68218;51.012;-1.648;2023-03-09T14:07:24;98095.41;;;9.72;98.18
52693;BME280;68218;51.012;-1.648;2023-03-09T14:09:55;98089.72;;;9.73;98.61
52693;BME280;68218;51.012;-1.648;2023-03-09T14:12:36;98083.06;;;9.71;97.75
52693;BME280;68218;51.012;-1.648;2023-03-09T14:15:05;98077.41;;;9.81;98.30
52693;BME280;68218;51.012;-1.648;2023-03-09T14:17:33;98069.97;;;9.87;98.51
52693;BME280;68218;51.012;-1.648;2023-03-09T14:20:00;98069.94;;;9.78;97.45
52693;BME280;68218;51.012;-1.648;2023-03-09T14:22:29;98062.97;;;9.77;97.57